Time;durP1;ratioP1;P1;durP2;ratioP2;P2;SDS_P1;SDS_P2;PMS_P1;PMS_P2;Temp;Humidity;BMP_temperature;BMP_pressure;BME280_temperature;BME280_humidity;BME280_pressure;Samples;Min_cycle;Max_cycle;Signal;HPM_P1;HPM_P2
2022/04/04 00:00:47;;;;;;;6.53;3.83;;;1.50;99.90;;;;;;5058556;28;20103;-77
2022/04/04 00:03:13;;;;;;;8.47;3.90;;;1.50;99.90;;;;;;5076408;28;20024;-77
2022/04/04 00:05:39;;;;;;;5.73;3.67;;;1.50;99.90;;;;;;5075455;28;20465;-78
2022/04/04 00:08:05;;;;;;;5.97;3.23;;;1.50;99.90;;;;;;5058347;28;20035;-78
2022/04/04 00:10:31;;;;;;;5.03;3.57;;;1.50;99.90;;;;;;5057651;28;20116;-77
2022/04/04 00:12:57;;;;;;;4.70;3.10;;;1.50;99.90;;;;;;5075962;28;20111;-78
2022/04/04 00:15:22;;;;;;;6.40;3.37;;;1.50;99.90;;;;;;5057903;28;20087;-78
2022/04/04 00:17:48;;;;;;;4.27;3.07;;;1.50;99.90;;;;;;5058371;28;20024;-78
2022/04/04 00:20:14;;;;;;;5.77;3.40;;;1.50;99.90;;;;;;5076054;28;20108;-78
2022/04/04 00:22:41;;;;;;;7.37;3.67;;;1.50;99.90;;;;;;5057340;28;20503;-78
2022/04/04 00:25:08;;;;;;;5.00;2.80;;;1.50;99.90;;;;;;5057943;28;20028;-77
2022/04/04 00:27:34;;;;;;;6.10;4.10;;;1.50;99.90;;;;;;5075496;28;20469;-78
2022/04/04 00:29:59;;;;;;;4.87;3.33;;;1.50;99.90;;;;;;5076107;28;20065;-77
2022/04/04 00:32:26;;;;;;;8.33;3.60;;;1.40;99.90;;;;;;5057837;28;20470;-78
2022/04/04 00:34:52;;;;;;;4.70;2.93;;;1.40;99.90;;;;;;5076108;28;20032;-78
2022/04/04 00:37:17;;;;;;;6.97;3.27;;;1.40;99.90;;;;;;5058170;28;20020;-77
2022/04/04 00:39:43;;;;;;;5.73;3.17;;;1.40;99.90;;;;;;5057305;28;20054;-77
2022/04/04 00:42:09;;;;;;;4.67;3.03;;;1.40;99.90;;;;;;5058456;28;20461;-77
2022/04/04 00:44:35;;;;;;;5.67;3.03;;;1.40;99.90;;;;;;5057610;28;20111;-78
2022/04/04 00:47:01;;;;;;;6.00;3.40;;;1.30;99.90;;;;;;5075787;28;20021;-77
2022/04/04 00:49:27;;;;;;;5.40;3.17;;;1.30;99.90;;;;;;5075517;28;20016;-77
2022/04/04 00:51:53;;;;;;;4.63;2.70;;;1.30;99.90;;;;;;5058105;28;20475;-77
2022/04/04 00:54:19;;;;;;;6.87;3.33;;;1.30;99.90;;;;;;5057954;28;20028;-77
2022/04/04 00:56:46;;;;;;;4.63;3.07;;;1.20;99.90;;;;;;5057296;28;20035;-77
2022/04/04 00:59:16;;;;;;;5.70;3.13;;;1.20;99.90;;;;;;5075888;28;20025;-77
2022/04/04 01:01:42;;;;;;;5.70;3.17;;;1.20;99.90;;;;;;5057215;28;20073;-77
2022/04/04 01:04:11;;;;;;;4.60;3.07;;;1.20;99.90;;;;;;5075400;28;20024;-77
2022/04/04 01:06:38;;;;;;;5.83;3.20;;;1.20;99.90;;;;;;5057283;28;20025;-77
2022/04/04 01:09:04;;;;;;;5.13;3.23;;;1.10;99.90;;;;;;5056537;28;20036;-77
2022/04/04 01:11:30;;;;;;;6.10;3.33;;;1.20;99.90;;;;;;5057429;28;20028;-77
2022/04/04 01:13:56;;;;;;;5.70;3.13;;;1.20;99.90;;;;;;5075440;28;20028;-78
2022/04/04 01:16:22;;;;;;;5.83;3.13;;;1.10;99.90;;;;;;5057569;28;20472;-78
2022/04/04 01:18:48;;;;;;;5.93;3.27;;;1.10;99.90;;;;;;5058643;28;20023;-77
2022/04/04 01:21:19;;;;;;;5.23;3.13;;;1.10;99.90;;;;;;5057293;28;20518;-78
2022/04/04 01:23:48;;;;;;;5.17;3.17;;;1.10;99.90;;;;;;5057115;28;20415;-78
2022/04/04 01:26:14;;;;;;;4.30;3.13;;;1.10;99.90;;;;;;5075342;28;20024;-78
2022/04/04 01:28:40;;;;;;;4.20;2.63;;;1.00;99.90;;;;;;5074609;28;20074;-77
2022/04/04 01:31:07;;;;;;;5.03;2.97;;;1.00;99.90;;;;;;5075395;28;20104;-77
2022/04/04 01:33:33;;;;;;;7.17;2.80;;;1.00;99.90;;;;;;5074724;28;20450;-77
2022/04/04 01:35:58;;;;;;;7.20;3.23;;;1.00;99.90;;;;;;5075155;28;20035;-77
2022/04/04 01:38:27;;;;;;;4.30;2.93;;;1.00;99.90;;;;;;5074452;28;20095;-79
2022/04/04 01:40:53;;;;;;;4.73;3.07;;;1.10;99.90;;;;;;5075000;28;20302;-77
2022/04/04 01:43:19;;;;;;;4.33;2.90;;;1.10;99.90;;;;;;5074979;28;20369;-77
2022/04/04 01:48:37;;;;;;;7.83;3.27;;;1.00;99.90;;;;;;5074496;28;20119;-77
2022/04/04 01:51:03;;;;;;;5.40;2.70;;;1.00;99.90;;;;;;5074811;28;20017;-77
2022/04/04 01:53:30;;;;;;;5.57;2.80;;;1.00;99.90;;;;;;5074116;28;20481;-77
2022/04/04 01:56:03;;;;;;;4.67;2.67;;;1.00;99.90;;;;;;5075098;28;20032;-77
2022/04/04 01:58:30;;;;;;;4.27;2.87;;;1.00;99.90;;;;;;5074209;28;20027;-77
2022/04/04 02:00:58;;;;;;;4.10;2.80;;;1.00;99.90;;;;;;5074382;28;20036;-77
2022/04/04 02:03:25;;;;;;;5.30;3.20;;;1.00;99.90;;;;;;5056638;28;20338;-77
2022/04/04 02:05:51;;;;;;;4.90;2.80;;;1.00;99.90;;;;;;5074356;28;20017;-77
2022/04/04 02:08:16;;;;;;;4.70;2.90;;;1.00;99.90;;;;;;5056358;28;20074;-77
2022/04/04 02:10:42;;;;;;;4.97;3.03;;;1.00;99.90;;;;;;5073775;28;20102;-77
2022/04/04 02:13:08;;;;;;;4.70;3.00;;;1.00;99.90;;;;;;5056801;28;20377;-77
2022/04/04 02:15:33;;;;;;;5.13;3.10;;;0.90;99.90;;;;;;5056322;28;20033;-77
2022/04/04 02:17:59;;;;;;;4.40;2.90;;;0.90;99.90;;;;;;5056756;28;20063;-77
2022/04/04 02:20:24;;;;;;;5.20;2.90;;;0.90;99.90;;;;;;5056469;28;20449;-77
2022/04/04 02:22:50;;;;;;;6.93;3.30;;;0.80;99.90;;;;;;5073384;28;20045;-77
2022/04/04 02:25:17;;;;;;;3.97;2.83;;;0.80;99.90;;;;;;5056743;28;20055;-78
2022/04/04 02:27:42;;;;;;;4.87;2.90;;;0.80;99.90;;;;;;5056013;28;20058;-77
2022/04/04 02:30:08;;;;;;;5.67;2.73;;;0.80;99.90;;;;;;5056397;28;20020;-77
2022/04/04 02:32:35;;;;;;;5.67;3.13;;;0.80;99.90;;;;;;5073551;28;20024;-77
2022/04/04 02:35:00;;;;;;;5.03;2.97;;;0.90;99.90;;;;;;5056300;28;20170;-78
2022/04/04 02:37:26;;;;;;;6.00;2.93;;;0.80;99.90;;;;;;5056304;28;20062;-78
2022/04/04 02:39:51;;;;;;;3.33;2.83;;;0.80;99.90;;;;;;5055720;28;20039;-77
2022/04/04 02:42:17;;;;;;;5.23;3.03;;;0.90;99.90;;;;;;5056474;28;20093;-78
2022/04/04 02:44:43;;;;;;;5.53;2.73;;;0.80;99.90;;;;;;5055700;28;20039;-77
2022/04/04 02:47:09;;;;;;;5.63;3.00;;;0.80;99.90;;;;;;5073780;28;20020;-77
2022/04/04 02:49:35;;;;;;;5.00;2.87;;;0.80;99.90;;;;;;5055597;28;20029;-77
2022/04/04 02:52:01;;;;;;;4.47;3.70;;;0.80;99.90;;;;;;5055836;28;20026;-77
2022/04/04 02:54:26;;;;;;;8.47;5.07;;;0.80;99.90;;;;;;5055751;28;20111;-77
2022/04/04 02:56:52;;;;;;;8.20;5.57;;;0.80;99.90;;;;;;5073196;28;20025;-77
2022/04/04 02:59:18;;;;;;;8.77;5.80;;;0.80;99.90;;;;;;5073678;28;20020;-77
2022/04/04 03:01:48;;;;;;;6.67;4.80;;;0.80;99.90;;;;;;5073022;28;20078;-77
2022/04/04 03:04:15;;;;;;;8.00;4.83;;;0.80;99.90;;;;;;5055898;28;20032;-77
2022/04/04 03:06:41;;;;;;;8.17;4.30;;;0.70;99.90;;;;;;5054884;28;20043;-77
2022/04/04 03:09:06;;;;;;;4.30;3.10;;;0.70;99.90;;;;;;5055697;28;20450;-77
2022/04/04 03:11:32;;;;;;;8.10;3.70;;;0.70;99.90;;;;;;5055102;28;20025;-78
2022/04/04 03:13:58;;;;;;;5.23;3.17;;;0.70;99.90;;;;;;5073264;28;20024;-77
2022/04/04 03:16:24;;;;;;;5.20;2.83;;;0.70;99.90;;;;;;5055438;28;20025;-77
2022/04/04 03:18:49;;;;;;;3.90;2.80;;;0.60;99.90;;;;;;5073063;28;20161;-77
2022/04/04 03:21:15;;;;;;;4.70;2.70;;;0.60;99.90;;;;;;5055659;28;20022;-77
2022/04/04 03:23:41;;;;;;;6.97;3.20;;;0.60;99.90;;;;;;5072951;28;20048;-78
2022/04/04 03:26:09;;;;;;;4.97;2.97;;;0.50;99.90;;;;;;5055862;28;20048;-77
2022/04/04 03:28:35;;;;;;;4.93;2.70;;;0.50;99.90;;;;;;5055080;28;20031;-78
2022/04/04 03:31:04;;;;;;;5.80;3.33;;;0.50;99.90;;;;;;5054751;28;20021;-77
2022/04/04 03:33:31;;;;;;;5.27;3.40;;;0.50;99.90;;;;;;5055555;28;20024;-77
2022/04/04 03:35:56;;;;;;;7.37;4.37;;;0.50;99.90;;;;;;5055560;28;20024;-77
2022/04/04 03:38:22;;;;;;;8.10;4.37;;;0.50;99.90;;;;;;5055385;28;20028;-77
2022/04/04 03:40:48;;;;;;;5.70;4.10;;;0.50;99.90;;;;;;5054970;28;20462;-77
2022/04/04 03:43:13;;;;;;;7.03;4.00;;;0.40;99.90;;;;;;5055271;28;20173;-77
2022/04/04 03:45:39;;;;;;;6.43;3.93;;;0.40;99.90;;;;;;5072621;28;20361;-78
2022/04/04 03:48:05;;;;;;;8.23;4.07;;;0.40;99.90;;;;;;5055521;28;20025;-77
2022/04/04 03:50:31;;;;;;;5.00;3.33;;;0.40;99.90;;;;;;5055105;28;20486;-77
2022/04/04 03:52:57;;;;;;;6.63;3.40;;;0.40;99.90;;;;;;5072820;28;20365;-77
2022/04/04 03:55:30;;;;;;;7.03;3.57;;;0.40;99.90;;;;;;5072994;28;20031;-77
2022/04/04 03:57:56;;;;;;;5.80;3.80;;;0.30;99.90;;;;;;5054570;28;20044;-77
2022/04/04 04:00:24;;;;;;;7.13;4.03;;;0.30;99.90;;;;;;5055332;28;20469;-77
2022/04/04 04:02:51;;;;;;;5.67;3.53;;;0.30;99.90;;;;;;5054643;28;20024;-77
2022/04/04 04:05:17;;;;;;;5.53;3.60;;;0.30;99.90;;;;;;5072883;28;20028;-77
2022/04/04 04:07:43;;;;;;;8.33;4.40;;;0.30;99.90;;;;;;5054501;28;20032;-78
2022/04/04 04:10:12;;;;;;;9.40;4.63;;;0.30;99.90;;;;;;5072256;28;20056;-77
2022/04/04 04:12:42;;;;;;;7.47;4.00;;;0.20;99.90;;;;;;5072023;28;20013;-78
2022/04/04 04:15:15;;;;;;;9.67;4.50;;;0.20;99.90;;;;;;5072605;28;20029;-77
2022/04/04 04:17:40;;;;;;;8.83;4.93;;;0.20;99.90;;;;;;5071933;28;20047;-77
2022/04/04 04:20:19;;;;;;;8.47;4.50;;;0.20;99.90;;;;;;5071403;28;20027;-78
2022/04/04 04:22:48;;;;;;;7.93;5.07;;;0.20;99.90;;;;;;5072301;28;20047;-77
2022/04/04 04:25:14;;;;;;;12.33;5.43;;;0.20;99.90;;;;;;5055197;28;20036;-77
2022/04/04 04:27:41;;;;;;;11.70;5.70;;;0.10;99.90;;;;;;5054559;28;20020;-78
2022/04/04 04:30:07;;;;;;;8.63;5.10;;;0.10;99.90;;;;;;5054923;28;20024;-77
2022/04/04 04:32:34;;;;;;;9.97;5.30;;;0.10;99.90;;;;;;5071832;28;20119;-77
2022/04/04 04:34:59;;;;;;;15.37;5.50;;;0.10;99.90;;;;;;5071513;28;20579;-77
2022/04/04 04:37:25;;;;;;;11.23;5.97;;;0.10;99.90;;;;;;5054964;28;20045;-76
2022/04/04 04:39:52;;;;;;;9.10;5.13;;;0.00;99.90;;;;;;5072228;28;20029;-78
2022/04/04 04:42:17;;;;;;;11.50;5.47;;;0.00;99.90;;;;;;5056295;28;20021;-77
2022/04/04 04:44:44;;;;;;;10.83;5.73;;;0.00;99.90;;;;;;5057811;28;20032;-78
2022/04/04 04:47:10;;;;;;;11.37;5.83;;;0.00;99.90;;;;;;5075734;28;20488;-77
2022/04/04 04:49:36;;;;;;;9.60;5.73;;;-0.10;99.90;;;;;;5075603;28;20025;-78
2022/04/04 04:52:02;;;;;;;8.97;5.23;;;-0.10;99.90;;;;;;5058417;28;20024;-77
2022/04/04 04:54:30;;;;;;;9.77;5.50;;;-0.10;99.90;;;;;;5076174;28;20526;-77
2022/04/04 04:56:56;;;;;;;11.47;5.30;;;-0.20;99.90;;;;;;5057616;28;20297;-77
2022/04/04 04:59:21;;;;;;;9.37;5.60;;;-0.20;99.90;;;;;;5075974;28;20016;-77
2022/04/04 05:01:47;;;;;;;12.17;5.63;;;-0.20;99.90;;;;;;5075278;28;20028;-78
2022/04/04 05:04:13;;;;;;;10.33;5.63;;;-0.20;99.90;;;;;;5074784;28;20465;-77
2022/04/04 05:06:39;;;;;;;12.00;6.00;;;-0.30;99.90;;;;;;5075264;28;20453;-78
2022/04/04 05:09:04;;;;;;;13.67;5.87;;;-0.30;99.90;;;;;;5057783;28;20024;-78
2022/04/04 05:11:30;;;;;;;11.43;6.03;;;-0.30;99.90;;;;;;5075598;28;20024;-77
2022/04/04 05:13:55;;;;;;;9.33;5.70;;;-0.30;99.90;;;;;;5057170;28;20489;-77
2022/04/04 05:16:28;;;;;;;12.20;5.70;;;-0.30;99.90;;;;;;5057582;28;20098;-77
2022/04/04 05:18:54;;;;;;;9.70;5.33;;;-0.30;99.90;;;;;;5057190;28;20068;-77
2022/04/04 05:21:19;;;;;;;9.17;5.67;;;-0.30;99.90;;;;;;5075433;28;20504;-77
2022/04/04 05:23:47;;;;;;;11.57;5.90;;;-0.30;99.90;;;;;;5056849;28;20054;-77
2022/04/04 05:26:13;;;;;;;12.17;6.17;;;-0.30;99.90;;;;;;5057556;28;20020;-77
2022/04/04 05:28:39;;;;;;;10.30;6.03;;;-0.30;99.90;;;;;;5074810;28;20020;-77
2022/04/04 05:31:08;;;;;;;13.50;6.67;;;-0.30;99.90;;;;;;5057492;28;20029;-77
2022/04/04 05:33:35;;;;;;;11.63;6.33;;;-0.30;99.90;;;;;;5075065;28;20056;-77
2022/04/04 05:36:01;;;;;;;13.20;6.17;;;-0.30;99.90;;;;;;5074626;28;20499;-77
2022/04/04 05:38:26;;;;;;;12.53;5.93;;;-0.30;99.90;;;;;;5075142;28;20103;-77
2022/04/04 05:40:52;;;;;;;11.87;6.33;;;-0.20;99.90;;;;;;5074591;28;20056;-78
2022/04/04 05:43:18;;;;;;;15.37;6.30;;;-0.30;99.90;;;;;;5074970;28;20031;-78
2022/04/04 05:45:44;;;;;;;12.97;6.60;;;-0.30;99.90;;;;;;5073301;28;20021;-78
2022/04/04 05:48:10;;;;;;;10.40;6.07;;;-0.30;99.90;;;;;;5057207;28;20035;-78
2022/04/04 05:50:35;;;;;;;11.93;6.67;;;-0.30;99.90;;;;;;5057195;28;20024;-77
2022/04/04 05:53:01;;;;;;;12.30;6.50;;;-0.20;99.90;;;;;;5056063;28;20030;-78
2022/04/04 05:55:27;;;;;;;11.93;6.63;;;-0.20;99.90;;;;;;5056547;28;20032;-79
2022/04/04 05:57:53;;;;;;;11.93;6.33;;;-0.20;99.90;;;;;;5056174;28;20024;-79
2022/04/04 06:00:18;;;;;;;15.53;7.43;;;-0.30;99.90;;;;;;5056669;28;20115;-78
2022/04/04 06:02:46;;;;;;;10.77;6.10;;;-0.20;99.90;;;;;;5056096;28;20016;-79
2022/04/04 06:05:12;;;;;;;11.63;6.50;;;-0.20;99.90;;;;;;5056824;28;20028;-79
2022/04/04 06:07:39;;;;;;;10.90;6.43;;;-0.10;99.90;;;;;;5073065;28;20021;-79
2022/04/04 06:10:08;;;;;;;11.80;6.07;;;-0.10;99.90;;;;;;5073941;28;20036;-79
2022/04/04 06:12:38;;;;;;;16.33;6.87;;;-0.10;99.90;;;;;;5056260;28;20606;-79
2022/04/04 06:15:04;;;;;;;14.00;7.10;;;-0.10;99.90;;;;;;5055731;28;20524;-77
2022/04/04 06:17:30;;;;;;;13.33;6.80;;;0.00;99.90;;;;;;5056181;28;20449;-77
2022/04/04 06:19:56;;;;;;;11.10;6.27;;;0.00;99.90;;;;;;5073419;28;20023;-77
2022/04/04 06:22:25;;;;;;;11.63;6.77;;;0.00;99.90;;;;;;5072488;28;20485;-77
2022/04/04 06:24:51;;;;;;;11.87;6.30;;;0.10;99.90;;;;;;5055287;28;20025;-77
2022/04/04 06:27:17;;;;;;;12.77;6.50;;;0.10;99.90;;;;;;5056081;28;20024;-77
2022/04/04 06:29:45;;;;;;;12.33;7.00;;;0.10;99.90;;;;;;5055460;28;20031;-77
2022/04/04 06:32:10;;;;;;;8.87;5.67;;;0.20;99.90;;;;;;5056076;28;20473;-77
2022/04/04 06:34:37;;;;;;;9.80;6.10;;;0.20;99.90;;;;;;5056143;28;20119;-77
2022/04/04 06:37:04;;;;;;;9.77;5.93;;;0.20;99.90;;;;;;5055556;28;20029;-77
2022/04/04 06:39:30;;;;;;;14.40;6.20;;;0.20;99.90;;;;;;5055637;28;20094;-77
2022/04/04 06:41:56;;;;;;;10.80;6.27;;;0.30;99.90;;;;;;5071869;28;20377;-77
2022/04/04 06:44:23;;;;;;;12.77;6.00;;;0.30;99.90;;;;;;5056074;28;20028;-77
2022/04/04 06:46:49;;;;;;;10.60;6.07;;;0.30;99.90;;;;;;5055192;28;20070;-77
2022/04/04 06:49:14;;;;;;;10.70;5.67;;;0.40;99.90;;;;;;5055606;28;20029;-77
2022/04/04 06:51:40;;;;;;;9.93;5.67;;;0.40;99.90;;;;;;5055688;28;20024;-77
2022/04/04 06:54:07;;;;;;;12.73;5.67;;;0.50;99.90;;;;;;5072403;28;20028;-77
2022/04/04 06:56:34;;;;;;;14.67;6.00;;;0.50;99.90;;;;;;5055066;28;20025;-77
2022/04/04 06:59:01;;;;;;;11.00;5.73;;;0.50;99.90;;;;;;5054786;28;20019;-78
2022/04/04 07:01:26;;;;;;;10.33;5.77;;;0.60;99.90;;;;;;5073034;28;20095;-77
2022/04/04 07:03:52;;;;;;;9.30;5.37;;;0.60;99.90;;;;;;5054632;28;20021;-78
2022/04/04 07:06:17;;;;;;;10.90;6.17;;;0.70;99.90;;;;;;5054154;28;20438;-78
2022/04/04 07:08:44;;;;;;;12.03;5.87;;;0.80;99.90;;;;;;5072518;28;20442;-79
2022/04/04 07:11:10;;;;;;;9.37;5.57;;;0.90;99.90;;;;;;5055158;28;20527;-78
2022/04/04 07:13:40;;;;;;;10.50;5.83;;;1.00;99.90;;;;;;5055114;28;20027;-78
2022/04/04 07:16:06;;;;;;;9.33;5.63;;;1.10;99.90;;;;;;5054298;28;20116;-77
2022/04/04 07:18:32;;;;;;;10.97;5.90;;;1.20;99.90;;;;;;5054527;28;20073;-78
2022/04/04 07:20:58;;;;;;;13.43;6.30;;;1.30;99.90;;;;;;5054709;28;20471;-78
2022/04/04 07:23:24;;;;;;;12.70;6.10;;;1.30;99.90;;;;;;5054334;28;20048;-78
2022/04/04 07:25:50;;;;;;;11.37;5.77;;;1.40;99.90;;;;;;5054177;28;20450;-78
2022/04/04 07:28:15;;;;;;;11.43;5.70;;;1.50;99.90;;;;;;5054946;28;20024;-78
2022/04/04 07:30:43;;;;;;;10.50;5.67;;;1.60;99.90;;;;;;5054802;28;20445;-77
2022/04/04 07:33:10;;;;;;;12.03;6.00;;;1.60;99.90;;;;;;5054014;28;20028;-78
2022/04/04 07:35:35;;;;;;;13.63;7.20;;;1.70;99.90;;;;;;5055169;28;20035;-77
2022/04/04 07:38:01;;;;;;;12.07;6.27;;;1.70;99.90;;;;;;5053796;28;20020;-78
2022/04/04 07:40:28;;;;;;;12.47;5.53;;;1.80;99.90;;;;;;5054373;28;20021;-78
2022/04/04 07:42:53;;;;;;;12.20;6.30;;;1.80;99.90;;;;;;5054010;28;20017;-78
2022/04/04 07:45:20;;;;;;;11.37;5.73;;;1.90;99.90;;;;;;5063162;28;20027;-78
2022/04/04 07:47:46;;;;;;;10.33;5.67;;;1.90;99.90;;;;;;5070452;28;20032;-79
2022/04/04 07:50:13;;;;;;;12.03;5.80;;;1.90;99.90;;;;;;5075941;28;20024;-78
2022/04/04 07:52:40;;;;;;;13.20;6.70;;;2.00;99.90;;;;;;5077773;28;20032;-78
2022/04/04 07:55:07;;;;;;;10.47;5.47;;;2.10;99.90;;;;;;5064989;28;20031;-78
2022/04/04 07:57:32;;;;;;;11.87;5.40;;;2.10;99.90;;;;;;5073236;28;20446;-78
2022/04/04 07:59:58;;;;;;;12.27;5.80;;;2.20;99.90;;;;;;5066829;28;20377;-78
2022/04/04 08:02:24;;;;;;;7.93;4.93;;;2.20;99.90;;;;;;5069413;28;20036;-78
2022/04/04 08:04:50;;;;;;;10.50;5.83;;;2.20;99.90;;;;;;5058381;28;20119;-78
2022/04/04 08:07:18;;;;;;;8.20;4.93;;;2.30;99.90;;;;;;5084765;28;20499;-78
2022/04/04 08:09:43;;;;;;;7.73;4.90;;;2.40;99.90;;;;;;5055018;28;20495;-78
2022/04/04 08:12:09;;;;;;;10.37;4.90;;;2.40;99.90;;;;;;5064957;28;20429;-78
2022/04/04 08:14:36;;;;;;;11.20;4.77;;;2.40;99.90;;;;;;5051315;28;20028;-78
2022/04/04 08:17:03;;;;;;;6.90;4.20;;;2.50;99.90;;;;;;5074681;28;20031;-78
2022/04/04 08:19:30;;;;;;;7.90;4.47;;;2.60;99.90;;;;;;5072734;28;20035;-78
2022/04/04 08:21:55;;;;;;;7.93;4.60;;;2.60;99.90;;;;;;5070201;28;20369;-77
2022/04/04 08:24:22;;;;;;;9.27;4.67;;;2.70;99.80;;;;;;5063043;28;20020;-78
2022/04/04 08:26:48;;;;;;;10.33;4.67;;;2.80;99.60;;;;;;5063358;28;20028;-79
2022/04/04 08:29:14;;;;;;;8.13;4.03;;;2.80;99.80;;;;;;5070181;28;20027;-78
2022/04/04 08:31:40;;;;;;;8.83;4.90;;;2.90;99.90;;;;;;5058418;28;20127;-78
2022/04/04 08:34:06;;;;;;;8.33;4.43;;;3.00;98.10;;;;;;5086911;28;20401;-78
2022/04/04 08:36:32;;;;;;;8.07;4.20;;;3.10;99.00;;;;;;5063975;28;20043;-78
2022/04/04 08:38:58;;;;;;;9.53;4.27;;;3.20;99.50;;;;;;5061700;28;20032;-78
2022/04/04 08:41:25;;;;;;;7.57;3.97;;;3.30;98.50;;;;;;5066580;28;20028;-78
2022/04/04 08:43:54;;;;;;;8.47;4.03;;;3.30;97.60;;;;;;5059405;28;20020;-78
2022/04/04 08:46:21;;;;;;;7.27;4.03;;;3.40;97.40;;;;;;5067327;28;20117;-78
2022/04/04 08:48:47;;;;;;;8.93;3.73;;;3.40;95.90;;;;;;5072765;28;20052;-78
2022/04/04 08:51:14;;;;;;;7.70;4.67;;;3.40;95.40;;;;;;5069309;28;20107;-78
2022/04/04 08:53:40;;;;;;;6.10;3.90;;;3.50;96.00;;;;;;5058222;28;20028;-78
2022/04/04 08:56:08;;;;;;;5.73;3.70;;;3.50;95.30;;;;;;5087011;28;20021;-78
2022/04/04 08:58:34;;;;;;;8.73;4.00;;;3.60;95.10;;;;;;5082195;28;20064;-78
2022/04/04 09:01:00;;;;;;;6.60;3.83;;;3.60;94.00;;;;;;5079248;28;20470;-78
2022/04/04 09:03:30;;;;;;;5.70;3.80;;;3.70;94.40;;;;;;5089683;28;20028;-78
2022/04/04 09:05:57;;;;;;;6.83;3.70;;;3.70;93.80;;;;;;5058467;28;20468;-78
2022/04/04 09:08:24;;;;;;;8.53;4.10;;;3.80;93.80;;;;;;5066540;28;20115;-78
2022/04/04 09:10:54;;;;;;;7.30;3.70;;;3.90;93.70;;;;;;5065802;28;20138;-79
2022/04/04 09:13:21;;;;;;;6.47;3.60;;;3.90;93.90;;;;;;5058449;28;20029;-78
2022/04/04 09:15:53;;;;;;;7.63;3.63;;;4.00;93.40;;;;;;5088918;28;20372;-78
2022/04/04 09:18:24;;;;;;;5.28;3.40;;;4.10;92.10;;;;;;5079535;28;20020;-78
2022/04/04 09:20:51;;;;;;;6.85;3.65;;;4.20;91.00;;;;;;5062562;28;20028;-79
2022/04/04 09:23:18;;;;;;;7.00;3.17;;;4.20;90.90;;;;;;5068978;28;20392;-78
2022/04/04 09:25:44;;;;;;;6.97;3.23;;;4.30;91.40;;;;;;5057300;28;20043;-78
2022/04/04 09:28:18;;;;;;;9.13;3.90;;;4.40;90.80;;;;;;5066849;28;20029;-78
2022/04/04 09:31:04;;;;;;;4.93;3.40;;;4.40;90.40;;;;;;5064835;28;20031;-78
2022/04/04 09:33:40;;;;;;;6.33;3.40;;;4.50;89.90;;;;;;5057117;28;20066;-78
2022/04/04 09:36:09;;;;;;;6.60;4.27;;;4.50;89.60;;;;;;5067698;28;20162;-78
2022/04/04 09:38:36;;;;;;;7.87;4.27;;;4.50;88.30;;;;;;5081043;28;20376;-79
2022/04/04 09:41:21;;;;;;;5.70;3.63;;;4.60;90.10;;;;;;5059890;28;20036;-78
2022/04/04 09:44:20;;;;;;;6.07;3.70;;;4.60;87.90;;;;;;5070294;28;20466;-78
2022/04/04 09:46:46;;;;;;;9.83;4.13;;;4.60;85.30;;;;;;5050753;28;20028;-78
2022/04/04 09:49:17;;;;;;;7.33;4.00;;;4.70;87.90;;;;;;5085569;28;20047;-78
2022/04/04 09:51:48;;;;;;;7.30;4.10;;;4.70;89.30;;;;;;5056840;28;20075;-77
2022/04/04 09:54:28;;;;;;;5.47;3.58;;;4.80;86.70;;;;;;5065972;28;20028;-78
2022/04/04 09:57:08;;;;;;;7.47;3.77;;;4.90;86.10;;;;;;5083474;28;20495;-79
2022/04/04 09:59:40;;;;;;;7.10;3.70;;;4.90;86.30;;;;;;5075173;28;20171;-78
2022/04/04 10:02:05;;;;;;;;;;;4.90;83.70;;;;;;5067882;28;20103;-79
2022/04/04 10:04:32;;;;;;;5.93;3.97;;;5.00;80.90;;;;;;5064181;28;20007;-78
2022/04/04 10:06:59;;;;;;;6.57;4.27;;;5.00;84.90;;;;;;5078117;28;20032;-79
2022/04/04 10:09:25;;;;;;;8.30;4.00;;;5.10;86.40;;;;;;5087964;28;20028;-78
2022/04/04 10:11:52;;;;;;;6.77;4.33;;;5.20;83.90;;;;;;5072892;28;20024;-79
2022/04/04 10:14:19;;;;;;;7.27;4.20;;;5.20;82.90;;;;;;5065740;28;20028;-78
2022/04/04 10:16:45;;;;;;;8.23;4.27;;;5.30;80.60;;;;;;5076245;28;20036;-78
2022/04/04 10:19:11;;;;;;;6.93;4.10;;;5.30;80.40;;;;;;5052973;28;20032;-77
2022/04/04 10:21:37;;;;;;;8.13;4.67;;;5.30;78.30;;;;;;5069625;28;20024;-78
2022/04/04 10:24:07;;;;;;;6.93;3.97;;;5.30;77.90;;;;;;5075775;28;20048;-78
2022/04/04 10:26:35;;;;;;;7.17;4.23;;;5.40;79.90;;;;;;5081720;28;20097;-78
2022/04/04 10:29:21;;;;;;;12.57;3.93;;;5.50;77.20;;;;;;5083131;28;20020;-78
2022/04/04 10:31:49;;;;;;;7.50;3.93;;;5.50;78.60;;;;;;5055771;28;20035;-78
2022/04/04 10:34:20;;;;;;;6.67;4.10;;;5.60;76.90;;;;;;5058698;28;20528;-79
2022/04/04 10:36:58;;;;;;;6.87;4.03;;;5.70;74.50;;;;;;5061916;28;20029;-77
2022/04/04 10:39:44;;;;;;;6.53;4.07;;;5.70;73.20;;;;;;5068742;28;20064;-78
2022/04/04 10:42:26;;;;;;;6.17;3.90;;;5.80;74.50;;;;;;5061078;28;20073;-78
2022/04/04 10:45:02;;;;;;;6.30;3.87;;;5.90;74.40;;;;;;5080763;28;20034;-78
2022/04/04 10:47:30;;;;;;;6.73;4.13;;;6.00;73.90;;;;;;5055731;28;20016;-78
2022/04/04 10:49:57;;;;;;;10.90;6.10;;;6.20;73.90;;;;;;5067856;28;20070;-78
2022/04/04 10:52:41;;;;;;;5.63;4.07;;;6.30;70.30;;;;;;5060352;28;20109;-78
2022/04/04 10:55:42;;;;;;;6.43;4.23;;;6.30;70.80;;;;;;5057696;28;20074;-78
2022/04/04 10:58:13;;;;;;;7.87;4.23;;;6.40;69.70;;;;;;5075828;28;20020;-78
2022/04/04 11:01:16;;;;;;;5.17;3.70;;;6.50;71.10;;;;;;5057777;28;20440;-78
2022/04/04 11:03:57;;;;;;;6.80;4.20;;;6.70;69.60;;;;;;5056442;28;20031;-78
2022/04/04 11:09:26;;;;;;;6.87;4.23;;;6.70;69.10;;;;;;5087761;28;20039;-78
2022/04/04 11:12:00;;;;;;;5.87;4.37;;;6.70;69.90;;;;;;5074081;28;20024;-79
2022/04/04 11:14:36;;;;;;;8.90;4.20;;;6.70;69.40;;;;;;5056600;28;20419;-79
2022/04/04 11:17:08;;;;;;;8.93;4.13;;;6.90;68.20;;;;;;5068709;28;20050;-78
2022/04/04 11:20:21;;;;;;;6.15;4.03;;;7.00;69.00;;;;;;5053187;28;20465;-78
2022/04/04 11:22:52;;;;;;;7.90;4.17;;;7.00;68.20;;;;;;5010732;28;20049;-78
2022/04/04 11:25:20;;;;;;;6.63;3.80;;;7.10;67.90;;;;;;5047905;28;20178;-78
2022/04/04 11:27:49;;;;;;;7.70;4.47;;;7.20;68.50;;;;;;5052901;28;20020;-78
2022/04/04 11:30:17;;;;;;;6.13;4.17;;;7.30;67.80;;;;;;5066804;28;20107;-78
2022/04/04 11:32:46;;;;;;;6.63;4.37;;;7.30;68.40;;;;;;5069826;28;20029;-78
2022/04/04 11:35:20;;;;;;;6.80;3.83;;;7.30;66.40;;;;;;5053718;28;20039;-78
2022/04/04 11:37:58;;;;;;;5.63;3.80;;;7.30;65.70;;;;;;5056559;28;20020;-78
2022/04/04 11:40:29;;;;;;;6.33;4.17;;;7.20;66.40;;;;;;5060272;28;20482;-78
2022/04/04 11:42:56;;;;;;;7.47;4.20;;;7.20;66.90;;;;;;5054759;28;20062;-78
2022/04/04 11:45:24;;;;;;;6.10;3.97;;;7.10;66.00;;;;;;5066164;28;20029;-78
2022/04/04 11:48:02;;;;;;;6.90;4.23;;;7.20;65.90;;;;;;5068609;28;20154;-78
2022/04/04 11:50:30;;;;;;;6.47;3.53;;;7.20;65.30;;;;;;5063348;28;20492;-78
2022/04/04 11:53:03;;;;;;;7.00;4.00;;;7.30;65.50;;;;;;5069607;28;20027;-79
2022/04/04 11:55:31;;;;;;;5.57;3.33;;;7.40;63.90;;;;;;5055594;28;20032;-78
2022/04/04 11:57:59;;;;;;;5.53;3.83;;;7.60;61.80;;;;;;5078267;28;20088;-79
2022/04/04 12:00:30;;;;;;;5.63;3.90;;;7.60;61.50;;;;;;5067488;28;20021;-79
2022/04/04 12:03:01;;;;;;;4.37;3.33;;;7.70;60.00;;;;;;5085630;28;20457;-79
2022/04/04 12:05:28;;;;;;;5.27;3.30;;;7.80;58.60;;;;;;5076778;28;20027;-78
2022/04/04 12:07:54;;;;;;;3.83;3.07;;;7.90;59.50;;;;;;5078640;28;20050;-78
2022/04/04 12:10:31;;;;;;;5.97;3.20;;;8.10;59.80;;;;;;5079404;28;20368;-78
2022/04/04 12:13:01;;;;;;;6.80;3.50;;;8.20;58.00;;;;;;5050746;28;20027;-79
2022/04/04 12:15:29;;;;;;;5.22;3.33;;;8.40;56.70;;;;;;5073109;28;20063;-79
2022/04/04 12:17:55;;;;;;;5.18;2.90;;;8.50;55.30;;;;;;5058056;28;20017;-78
2022/04/04 12:20:21;;;;;;;6.18;3.10;;;8.70;54.70;;;;;;5085647;28;20016;-78
2022/04/04 12:25:31;;;;;;;4.03;2.95;;;9.10;53.50;;;;;;5075779;28;20177;-79
2022/04/04 12:27:59;;;;;;;3.75;2.90;;;9.20;51.60;;;;;;5072823;28;20096;-79
2022/04/04 12:30:30;;;;;;;4.00;3.08;;;9.20;50.30;;;;;;5062354;28;20026;-78
2022/04/04 12:33:07;;;;;;;4.30;3.45;;;9.40;51.10;;;;;;5056250;28;20119;-78
2022/04/04 12:35:41;;;;;;;6.07;3.38;;;9.40;50.60;;;;;;5061428;28;20032;-79
2022/04/04 12:38:10;;;;;;;5.85;3.10;;;9.60;51.00;;;;;;5054901;28;20029;-79
2022/04/04 12:40:38;;;;;;;3.15;2.72;;;9.70;48.50;;;;;;5059839;28;20024;-78
2022/04/04 12:43:08;;;;;;;5.78;3.20;;;9.70;48.30;;;;;;5054710;28;20574;-79
2022/04/04 12:45:45;;;;;;;4.80;3.28;;;9.70;49.70;;;;;;5057803;28;20409;-78
2022/04/04 12:48:11;;;;;;;4.70;3.40;;;9.80;49.20;;;;;;5075014;28;20529;-79
2022/04/04 12:50:38;;;;;;;5.30;3.67;;;10.00;48.50;;;;;;5064726;28;20020;-78
2022/04/04 12:53:07;;;;;;;5.28;3.50;;;10.20;48.10;;;;;;5060678;28;20025;-79
2022/04/04 12:55:33;;;;;;;6.15;3.47;;;10.40;47.30;;;;;;5073816;28;20029;-77
2022/04/04 12:58:19;;;;;;;6.75;3.60;;;10.60;47.60;;;;;;5059788;28;20031;-78
2022/04/04 13:00:46;;;;;;;5.40;3.58;;;10.60;46.50;;;;;;5061689;28;20107;-78
2022/04/04 13:03:24;;;;;;;5.30;3.65;;;10.70;48.90;;;;;;5068595;28;20039;-79
2022/04/04 13:05:58;;;;;;;4.45;3.70;;;11.00;47.80;;;;;;5089269;28;20063;-79